Time;durP1;ratioP1;P1;durP2;ratioP2;P2;SDS_P1;SDS_P2;PMS_P1;PMS_P2;Temp;Humidity;BMP_temperature;BMP_pressure;BME280_temperature;BME280_humidity;BME280_pressure;Samples;Min_cycle;Max_cycle;Signal;HPM_P1;HPM_P2
2023/07/08 00:00:14;;;;;;;4.07;3.78;;;;;;;;;;5080197;28;20234;-65
2023/07/08 00:02:42;;;;;;;4.18;3.35;;;;;;;;;;5080473;28;20223;-65
2023/07/08 00:05:10;;;;;;;3.90;3.60;;;;;;;;;;5080491;28;20204;-65
2023/07/08 00:07:40;;;;;;;3.90;3.60;;;;;;;;;;5080870;28;20239;-65
2023/07/08 00:10:13;;;;;;;3.70;3.40;;;;;;;;;;5080234;28;20584;-66
2023/07/08 00:12:41;;;;;;;3.45;3.25;;;;;;;;;;5080385;28;20270;-65
2023/07/08 00:15:09;;;;;;;3.70;3.40;;;;;;;;;;5080444;28;20223;-65
2023/07/08 00:17:37;;;;;;;3.58;3.35;;;;;;;;;;5080281;28;20304;-66
2023/07/08 00:20:11;;;;;;;4.00;3.70;;;;;;;;;;5079860;28;20741;-66
2023/07/08 00:22:40;;;;;;;3.60;3.30;;;;;;;;;;5079631;28;20203;-65
2023/07/08 00:25:08;;;;;;;3.88;3.58;;;;;;;;;;5079739;28;20561;-65
2023/07/08 00:27:36;;;;;;;3.53;3.22;;;;;;;;;;5080056;28;20208;-65
2023/07/08 00:30:10;;;;;;;3.72;3.42;;;;;;;;;;5079811;28;20208;-65
2023/07/08 00:32:41;;;;;;;3.17;2.88;;;;;;;;;;5079362;28;20504;-65
2023/07/08 00:35:09;;;;;;;3.95;3.65;;;;;;;;;;5079436;28;20205;-65
2023/07/08 00:37:37;;;;;;;3.78;3.50;;;;;;;;;;5079535;28;20202;-65
2023/07/08 00:40:14;;;;;;;3.70;3.40;;;;;;;;;;5080115;28;20239;-65
2023/07/08 00:42:41;;;;;;;3.83;3.42;;;;;;;;;;5079152;28;20215;-65
2023/07/08 00:45:13;;;;;;;3.70;3.40;;;;;;;;;;5079170;28;20215;-65
2023/07/08 00:47:41;;;;;;;3.80;3.50;;;;;;;;;;5079301;28;20231;-65
2023/07/08 00:50:11;;;;;;;3.97;3.67;;;;;;;;;;5079155;28;20487;-65
2023/07/08 00:52:38;;;;;;;3.78;3.47;;;;;;;;;;5079363;28;20220;-65
2023/07/08 00:55:07;;;;;;;3.55;3.25;;;;;;;;;;5079304;28;20313;-65
2023/07/08 00:57:40;;;;;;;3.50;3.20;;;;;;;;;;5079727;28;20212;-65
2023/07/08 01:00:09;;;;;;;3.25;3.05;;;;;;;;;;5078014;28;20546;-66
2023/07/08 01:02:41;;;;;;;3.65;3.35;;;;;;;;;;5079368;28;20204;-65
2023/07/08 01:05:12;;;;;;;3.53;3.30;;;;;;;;;;5079256;28;20211;-65
2023/07/08 01:07:40;;;;;;;3.60;3.30;;;;;;;;;;5078951;28;20219;-65
2023/07/08 01:10:12;;;;;;;3.30;3.10;;;;;;;;;;5078794;28;20208;-65
2023/07/08 01:12:43;;;;;;;3.10;2.90;;;;;;;;;;5079533;28;20259;-65
2023/07/08 01:15:11;;;;;;;3.67;3.38;;;;;;;;;;5079252;28;20204;-66
2023/07/08 01:17:39;;;;;;;3.35;3.15;;;;;;;;;;5079217;28;20251;-65
2023/07/08 01:20:12;;;;;;;3.28;3.08;;;;;;;;;;5078820;28;20224;-65
2023/07/08 01:22:41;;;;;;;3.58;3.30;;;;;;;;;;5078854;28;20204;-65
2023/07/08 01:25:10;;;;;;;3.50;3.30;;;;;;;;;;5078889;28;20204;-65
2023/07/08 01:27:40;;;;;;;3.17;2.97;;;;;;;;;;5078728;28;20208;-65
2023/07/08 01:30:08;;;;;;;3.22;3.03;;;;;;;;;;5078497;28;20200;-65
2023/07/08 01:32:38;;;;;;;3.45;3.22;;;;;;;;;;5078635;28;20204;-65
2023/07/08 01:35:06;;;;;;;3.40;3.20;;;;;;;;;;5078654;28;20527;-65
2023/07/08 01:37:35;;;;;;;3.30;3.10;;;;;;;;;;5078510;28;20209;-65
2023/07/08 01:40:18;;;;;;;3.47;3.17;;;;;;;;;;5078319;28;20228;-65
2023/07/08 01:42:46;;;;;;;3.60;3.30;;;;;;;;;;5078413;28;20649;-65
2023/07/08 01:45:14;;;;;;;4.32;3.28;;;;;;;;;;5078265;28;20204;-65
2023/07/08 01:47:42;;;;;;;3.40;3.10;;;;;;;;;;5078709;28;20196;-66
2023/07/08 01:50:11;;;;;;;3.45;3.25;;;;;;;;;;5078628;28;20200;-66
2023/07/08 01:52:39;;;;;;;3.58;3.28;;;;;;;;;;5078149;28;20204;-65
2023/07/08 01:55:07;;;;;;;3.40;3.20;;;;;;;;;;5078434;28;20702;-65
2023/07/08 01:57:36;;;;;;;3.58;3.28;;;;;;;;;;5078505;28;20672;-65
2023/07/08 02:00:03;;;;;;;3.28;3.00;;;;;;;;;;5078376;28;20317;-65
2023/07/08 02:02:31;;;;;;;3.20;2.90;;;;;;;;;;5078241;28;20204;-65
2023/07/08 02:04:59;;;;;;;3.33;3.03;;;;;;;;;;5077966;28;20295;-65
2023/07/08 02:07:27;;;;;;;3.35;3.05;;;;;;;;;;5077876;28;20299;-65
2023/07/08 02:09:55;;;;;;;3.40;3.10;;;;;;;;;;5077314;28;20286;-66
2023/07/08 02:12:22;;;;;;;3.40;3.10;;;;;;;;;;5077787;28;20587;-65
2023/07/08 02:14:51;;;;;;;3.40;3.15;;;;;;;;;;5078116;28;20252;-65
2023/07/08 02:17:19;;;;;;;3.38;3.10;;;;;;;;;;5077392;28;20603;-65
2023/07/08 02:19:47;;;;;;;3.80;3.30;;;;;;;;;;5077780;28;20290;-65
2023/07/08 02:22:15;;;;;;;4.00;3.25;;;;;;;;;;5077547;28;20485;-65
2023/07/08 02:24:42;;;;;;;3.35;3.13;;;;;;;;;;5077657;28;20273;-66
2023/07/08 02:27:10;;;;;;;3.53;3.30;;;;;;;;;;5077292;28;20214;-65
2023/07/08 02:29:38;;;;;;;3.80;3.50;;;;;;;;;;5077736;28;20204;-65
2023/07/08 02:32:09;;;;;;;3.50;3.20;;;;;;;;;;5078124;28;20208;-65
2023/07/08 02:34:36;;;;;;;3.55;3.25;;;;;;;;;;5077542;28;20204;-65
2023/07/08 02:37:05;;;;;;;3.53;3.10;;;;;;;;;;5077672;28;20204;-65
2023/07/08 02:39:32;;;;;;;3.25;3.05;;;;;;;;;;5077517;28;20200;-65
2023/07/08 02:42:00;;;;;;;3.20;3.00;;;;;;;;;;5077220;28;20232;-65
2023/07/08 02:44:28;;;;;;;3.78;3.53;;;;;;;;;;5078002;28;20212;-65
2023/07/08 02:46:56;;;;;;;3.88;3.58;;;;;;;;;;5077652;28;20218;-65
2023/07/08 02:49:25;;;;;;;3.42;3.22;;;;;;;;;;5077292;28;20290;-65
2023/07/08 02:51:53;;;;;;;3.95;3.65;;;;;;;;;;5077298;28;20543;-65
2023/07/08 02:54:21;;;;;;;3.42;3.20;;;;;;;;;;5077217;28;20294;-66
2023/07/08 02:56:48;;;;;;;3.20;3.00;;;;;;;;;;5077430;28;20200;-65
2023/07/08 02:59:16;;;;;;;3.63;3.33;;;;;;;;;;5077486;28;20204;-66
2023/07/08 03:01:46;;;;;;;3.40;3.10;;;;;;;;;;5077118;28;20572;-65
2023/07/08 03:04:15;;;;;;;3.45;3.15;;;;;;;;;;5077643;28;20204;-65
2023/07/08 03:06:45;;;;;;;3.20;3.00;;;;;;;;;;5077323;28;20226;-65
2023/07/08 03:09:13;;;;;;;3.33;3.13;;;;;;;;;;5077152;28;20204;-66
2023/07/08 03:11:41;;;;;;;3.80;3.50;;;;;;;;;;5077184;28;20511;-66
2023/07/08 03:14:08;;;;;;;3.20;3.00;;;;;;;;;;5076947;28;20196;-66
2023/07/08 03:16:36;;;;;;;3.38;3.08;;;;;;;;;;5076872;28;20626;-65
2023/07/08 03:19:04;;;;;;;3.70;3.40;;;;;;;;;;5076695;28;20204;-65
2023/07/08 03:21:32;;;;;;;3.53;3.25;;;;;;;;;;5078021;28;20235;-65
2023/07/08 03:24:01;;;;;;;3.38;3.17;;;;;;;;;;5080905;28;20212;-65
2023/07/08 03:26:29;;;;;;;3.58;3.28;;;;;;;;;;5080699;28;20204;-65
2023/07/08 03:28:56;;;;;;;3.20;3.00;;;;;;;;;;5081026;28;20204;-65
2023/07/08 03:31:24;;;;;;;3.33;3.10;;;;;;;;;;5080879;28;20200;-65
2023/07/08 03:33:52;;;;;;;3.60;3.30;;;;;;;;;;5081211;28;20227;-65
2023/07/08 03:36:23;;;;;;;3.33;3.13;;;;;;;;;;5080827;28;20274;-65
2023/07/08 03:38:51;;;;;;;3.00;2.80;;;;;;;;;;5080558;28;20299;-65
2023/07/08 03:41:20;;;;;;;3.50;3.30;;;;;;;;;;5080875;28;20318;-65
2023/07/08 03:43:50;;;;;;;3.75;3.45;;;;;;;;;;5080971;28;20204;-65
2023/07/08 03:46:18;;;;;;;3.30;3.10;;;;;;;;;;5080463;28;20208;-65
2023/07/08 03:48:46;;;;;;;3.20;3.00;;;;;;;;;;5080880;28;20638;-65
2023/07/08 03:51:18;;;;;;;3.03;2.83;;;;;;;;;;5080727;28;20200;-65
2023/07/08 03:53:46;;;;;;;3.25;3.05;;;;;;;;;;5080024;28;20334;-65
2023/07/08 03:56:14;;;;;;;3.80;3.40;;;;;;;;;;5080446;28;20216;-65
2023/07/08 03:58:43;;;;;;;3.65;3.35;;;;;;;;;;5080981;28;20542;-65
2023/07/08 04:01:15;;;;;;;3.20;3.00;;;;;;;;;;5080293;28;20281;-65
2023/07/08 04:03:42;;;;;;;3.05;2.85;;;;;;;;;;5080162;28;20252;-65
2023/07/08 04:06:09;;;;;;;3.63;3.33;;;;;;;;;;5080507;28;20597;-65
2023/07/08 04:08:37;;;;;;;3.70;3.50;;;;;;;;;;5080460;28;20204;-66
2023/07/08 04:11:05;;;;;;;3.30;3.10;;;;;;;;;;5080284;28;20197;-65
2023/07/08 04:13:32;;;;;;;3.50;3.20;;;;;;;;;;5080274;28;20211;-65
2023/07/08 04:16:03;;;;;;;3.40;3.13;;;;;;;;;;5080470;28;20205;-65
2023/07/08 04:18:30;;;;;;;3.90;3.17;;;;;;;;;;5079999;28;20204;-65
2023/07/08 04:20:58;;;;;;;3.67;3.40;;;;;;;;;;5080125;28;20235;-65
2023/07/08 04:23:26;;;;;;;2.97;2.78;;;;;;;;;;5079811;28;20303;-65
2023/07/08 04:25:56;;;;;;;3.30;3.10;;;;;;;;;;5079771;28;20215;-65
2023/07/08 04:28:23;;;;;;;3.53;3.30;;;;;;;;;;5080087;28;20215;-65
2023/07/08 04:30:50;;;;;;;3.65;3.35;;;;;;;;;;5080233;28;20204;-65
2023/07/08 04:33:19;;;;;;;3.72;3.40;;;;;;;;;;5079255;28;20212;-65
2023/07/08 04:35:46;;;;;;;3.60;3.30;;;;;;;;;;5079919;28;20204;-65
2023/07/08 04:38:17;;;;;;;3.40;3.15;;;;;;;;;;5080025;28;20204;-65
2023/07/08 04:40:45;;;;;;;3.70;3.40;;;;;;;;;;5079579;28;20204;-65
2023/07/08 04:43:13;;;;;;;3.40;3.10;;;;;;;;;;5079646;28;20204;-65
2023/07/08 04:45:40;;;;;;;3.60;3.30;;;;;;;;;;5079815;28;20212;-65
2023/07/08 04:48:12;;;;;;;3.22;3.03;;;;;;;;;;5079889;28;20212;-65
2023/07/08 04:50:42;;;;;;;3.40;3.10;;;;;;;;;;5079828;28;20208;-65
2023/07/08 04:53:09;;;;;;;3.60;3.30;;;;;;;;;;5079441;28;20250;-65
2023/07/08 04:55:37;;;;;;;3.30;3.10;;;;;;;;;;5079616;28;20203;-66
2023/07/08 04:58:04;;;;;;;3.58;3.38;;;;;;;;;;5079250;28;20230;-66
2023/07/08 05:00:32;;;;;;;3.38;3.08;;;;;;;;;;5079645;28;20211;-65
2023/07/08 05:02:59;;;;;;;3.30;3.10;;;;;;;;;;5078866;28;20211;-65
2023/07/08 05:05:26;;;;;;;3.53;3.33;;;;;;;;;;5079033;28;20208;-66
2023/07/08 05:07:55;;;;;;;3.28;3.08;;;;;;;;;;5078971;28;20215;-65
2023/07/08 05:10:23;;;;;;;4.20;3.17;;;;;;;;;;5079006;28;20204;-66
2023/07/08 05:12:50;;;;;;;3.85;3.55;;;;;;;;;;5079030;28;20228;-65
2023/07/08 05:15:17;;;;;;;3.63;3.42;;;;;;;;;;5079045;28;20205;-65
2023/07/08 05:17:45;;;;;;;3.55;3.30;;;;;;;;;;5078872;28;20216;-65
2023/07/08 05:20:14;;;;;;;3.55;3.28;;;;;;;;;;5078831;28;20204;-65
2023/07/08 05:22:42;;;;;;;3.60;3.30;;;;;;;;;;5078652;28;20236;-65
2023/07/08 05:25:11;;;;;;;3.17;2.97;;;;;;;;;;5078537;28;20364;-65
2023/07/08 05:27:38;;;;;;;3.70;3.50;;;;;;;;;;5078693;28;20215;-65
2023/07/08 05:30:07;;;;;;;3.70;3.40;;;;;;;;;;5078976;28;20208;-65
2023/07/08 05:32:34;;;;;;;3.50;3.20;;;;;;;;;;5078662;28;20478;-65
2023/07/08 05:35:02;;;;;;;3.50;3.20;;;;;;;;;;5078756;28;20231;-65
2023/07/08 05:37:30;;;;;;;3.38;3.15;;;;;;;;;;5078395;28;20204;-65
2023/07/08 05:40:00;;;;;;;3.20;3.00;;;;;;;;;;5078314;28;20211;-65
2023/07/08 05:42:28;;;;;;;3.47;3.28;;;;;;;;;;5078358;28;20310;-65
2023/07/08 05:44:56;;;;;;;3.38;3.10;;;;;;;;;;5078158;28;20231;-66
2023/07/08 05:47:24;;;;;;;3.70;3.40;;;;;;;;;;5078552;28;20215;-66
2023/07/08 05:49:51;;;;;;;3.63;3.42;;;;;;;;;;5078171;28;20211;-65
2023/07/08 05:52:18;;;;;;;3.58;3.33;;;;;;;;;;5077818;28;20212;-66
2023/07/08 05:54:45;;;;;;;3.50;3.30;;;;;;;;;;5077173;28;20243;-66
2023/07/08 05:57:13;;;;;;;3.65;3.38;;;;;;;;;;5077742;28;20541;-66
2023/07/08 05:59:43;;;;;;;3.70;3.40;;;;;;;;;;5078285;28;20576;-67
2023/07/08 06:02:11;;;;;;;3.60;3.30;;;;;;;;;;5077926;28;20260;-65
2023/07/08 06:04:39;;;;;;;3.35;3.05;;;;;;;;;;5077689;28;20212;-65
2023/07/08 06:07:06;;;;;;;3.50;3.25;;;;;;;;;;5077904;28;20212;-66
2023/07/08 06:09:33;;;;;;;3.53;3.30;;;;;;;;;;5076978;28;20212;-65
2023/07/08 06:12:01;;;;;;;3.55;3.28;;;;;;;;;;5077123;28;20207;-66
2023/07/08 06:14:29;;;;;;;3.70;3.40;;;;;;;;;;5077789;28;20295;-66
2023/07/08 06:16:59;;;;;;;3.78;3.47;;;;;;;;;;5077432;28;20597;-65
2023/07/08 06:19:26;;;;;;;3.33;3.13;;;;;;;;;;5077206;28;20204;-66
2023/07/08 06:21:54;;;;;;;3.50;3.30;;;;;;;;;;5077298;28;20632;-66
2023/07/08 06:24:21;;;;;;;3.33;3.13;;;;;;;;;;5077669;28;20196;-65
2023/07/08 06:26:49;;;;;;;3.33;3.13;;;;;;;;;;5077618;28;20251;-66
2023/07/08 06:29:16;;;;;;;3.45;3.00;;;;;;;;;;5077270;28;20215;-65
2023/07/08 06:31:44;;;;;;;3.35;3.15;;;;;;;;;;5077103;28;20235;-66
2023/07/08 06:34:12;;;;;;;3.45;3.25;;;;;;;;;;5076427;28;20213;-66
2023/07/08 06:36:40;;;;;;;3.58;3.35;;;;;;;;;;5076734;28;20211;-65
2023/07/08 06:39:08;;;;;;;2.92;2.72;;;;;;;;;;5077003;28;20208;-66
2023/07/08 06:41:36;;;;;;;3.22;3.03;;;;;;;;;;5077066;28;20673;-66
2023/07/08 06:44:03;;;;;;;3.28;3.08;;;;;;;;;;5077076;28;20492;-66
2023/07/08 06:46:31;;;;;;;3.00;2.80;;;;;;;;;;5077084;28;20567;-65
2023/07/08 06:48:58;;;;;;;3.58;3.28;;;;;;;;;;5077094;28;20212;-65
2023/07/08 06:51:27;;;;;;;3.47;3.28;;;;;;;;;;5077036;28;20216;-65
2023/07/08 06:53:54;;;;;;;3.28;3.08;;;;;;;;;;5076731;28;20243;-65
2023/07/08 06:56:22;;;;;;;3.40;3.20;;;;;;;;;;5075846;28;20204;-65
2023/07/08 06:58:49;;;;;;;3.38;3.17;;;;;;;;;;5076738;28;20223;-66
2023/07/08 07:01:16;;;;;;;3.20;2.90;;;;;;;;;;5076108;28;20490;-66
2023/07/08 07:03:44;;;;;;;3.20;3.00;;;;;;;;;;5076209;28;20211;-65
2023/07/08 07:06:11;;;;;;;3.40;3.10;;;;;;;;;;5076259;28;20227;-66
2023/07/08 07:08:40;;;;;;;3.42;3.13;;;;;;;;;;5076478;28;20204;-66
2023/07/08 07:11:07;;;;;;;3.53;3.28;;;;;;;;;;5075895;28;20215;-65
2023/07/08 07:13:35;;;;;;;3.40;3.20;;;;;;;;;;5076294;28;20211;-66
2023/07/08 07:16:02;;;;;;;3.28;3.00;;;;;;;;;;5075875;28;20208;-67
2023/07/08 07:18:29;;;;;;;3.08;2.88;;;;;;;;;;5076431;28;20204;-65
2023/07/08 07:20:57;;;;;;;3.28;3.08;;;;;;;;;;5076207;28;20212;-65
2023/07/08 07:23:24;;;;;;;3.55;3.28;;;;;;;;;;5076375;28;20235;-65
2023/07/08 07:25:53;;;;;;;3.22;3.03;;;;;;;;;;5076496;28;20204;-66
2023/07/08 07:28:21;;;;;;;3.15;2.95;;;;;;;;;;5075927;28;20212;-66
2023/07/08 07:30:48;;;;;;;3.38;3.15;;;;;;;;;;5075603;28;20204;-66
2023/07/08 07:33:16;;;;;;;3.15;2.90;;;;;;;;;;5076050;28;20200;-65
2023/07/08 07:35:44;;;;;;;3.15;2.95;;;;;;;;;;5076416;28;20196;-65
2023/07/08 07:38:11;;;;;;;3.10;2.90;;;;;;;;;;5075921;28;20575;-66
2023/07/08 07:40:38;;;;;;;3.53;3.22;;;;;;;;;;5075878;28;20211;-65
2023/07/08 07:43:07;;;;;;;3.30;3.10;;;;;;;;;;5075572;28;20504;-65
2023/07/08 07:45:34;;;;;;;3.40;3.20;;;;;;;;;;5076185;28;20587;-65
2023/07/08 07:48:02;;;;;;;3.08;2.88;;;;;;;;;;5075724;28;20212;-65
2023/07/08 07:50:29;;;;;;;3.80;3.50;;;;;;;;;;5075830;28;20231;-65
2023/07/08 07:52:57;;;;;;;3.40;3.20;;;;;;;;;;5075264;28;20205;-65
2023/07/08 07:55:24;;;;;;;3.83;3.53;;;;;;;;;;5075561;28;20623;-65
2023/07/08 07:57:51;;;;;;;3.20;3.00;;;;;;;;;;5075423;28;20200;-65
2023/07/08 08:00:20;;;;;;;3.17;2.95;;;;;;;;;;5075490;28;20223;-65
2023/07/08 08:02:47;;;;;;;3.22;3.03;;;;;;;;;;5074686;28;20243;-65
2023/07/08 08:05:15;;;;;;;3.38;3.17;;;;;;;;;;5075384;28;20569;-65
2023/07/08 08:07:42;;;;;;;3.20;3.00;;;;;;;;;;5075695;28;20286;-66
2023/07/08 08:10:15;;;;;;;3.70;3.40;;;;;;;;;;5078566;28;20215;-65
2023/07/08 08:12:42;;;;;;;3.25;3.05;;;;;;;;;;5078988;28;20208;-65
2023/07/08 08:15:10;;;;;;;3.60;3.30;;;;;;;;;;5078757;28;20197;-65
2023/07/08 08:17:39;;;;;;;3.50;3.30;;;;;;;;;;5078649;28;20208;-65
2023/07/08 08:20:07;;;;;;;3.42;3.13;;;;;;;;;;5078831;28;20204;-65
2023/07/08 08:22:35;;;;;;;3.63;3.33;;;;;;;;;;5078414;28;20715;-65
2023/07/08 08:25:02;;;;;;;3.70;3.40;;;;;;;;;;5078608;28;20211;-65
2023/07/08 08:27:30;;;;;;;3.70;3.40;;;;;;;;;;5078552;28;20817;-65
2023/07/08 08:29:57;;;;;;;3.55;3.25;;;;;;;;;;5078617;28;20235;-65
2023/07/08 08:32:25;;;;;;;3.83;3.53;;;;;;;;;;5078716;28;20196;-65
2023/07/08 08:34:53;;;;;;;3.42;3.20;;;;;;;;;;5079017;28;20489;-65
2023/07/08 08:37:21;;;;;;;3.65;3.35;;;;;;;;;;5079207;28;20498;-65
2023/07/08 08:39:48;;;;;;;3.60;3.30;;;;;;;;;;5078543;28;20200;-65
2023/07/08 08:42:25;;;;;;;3.80;3.45;;;;;;;;;;5077629;28;20514;-65
2023/07/08 08:44:53;;;;;;;3.47;3.20;;;;;;;;;;5078517;28;20204;-65
2023/07/08 08:47:25;;;;;;;4.07;3.78;;;;;;;;;;5078355;28;20512;-65
2023/07/08 08:49:56;;;;;;;3.70;3.40;;;;;;;;;;5078649;28;20204;-65
2023/07/08 08:52:23;;;;;;;3.80;3.50;;;;;;;;;;5077982;28;20279;-65
2023/07/08 08:54:51;;;;;;;3.80;3.50;;;;;;;;;;5077955;28;20670;-65
2023/07/08 08:57:21;;;;;;;4.03;3.72;;;;;;;;;;5078397;28;20287;-65
2023/07/08 08:59:53;;;;;;;3.95;3.65;;;;;;;;;;5078099;28;20205;-65
2023/07/08 09:02:27;;;;;;;4.50;4.10;;;;;;;;;;5077495;28;20638;-65
2023/07/08 09:04:56;;;;;;;3.92;3.63;;;;;;;;;;5077787;28;20208;-65
2023/07/08 09:07:23;;;;;;;3.88;3.58;;;;;;;;;;5077532;28;20208;-65
2023/07/08 09:09:53;;;;;;;3.92;3.63;;;;;;;;;;5077992;28;20227;-65
2023/07/08 09:12:24;;;;;;;3.88;3.58;;;;;;;;;;5077614;28;20200;-65
2023/07/08 09:14:51;;;;;;;3.83;3.53;;;;;;;;;;5077406;28;20215;-65
2023/07/08 09:17:22;;;;;;;3.72;3.42;;;;;;;;;;5076245;28;20245;-65
2023/07/08 09:19:51;;;;;;;3.72;3.42;;;;;;;;;;5076713;28;20219;-65
2023/07/08 09:22:22;;;;;;;3.75;3.45;;;;;;;;;;5077117;28;20228;-65
2023/07/08 09:24:51;;;;;;;4.25;3.95;;;;;;;;;;5077406;28;20205;-65
2023/07/08 09:27:18;;;;;;;4.35;4.00;;;;;;;;;;5076991;28;20201;-65
2023/07/08 09:29:46;;;;;;;3.80;3.50;;;;;;;;;;5076541;28;20274;-65
2023/07/08 09:32:16;;;;;;;3.92;3.63;;;;;;;;;;5076464;28;20204;-65
2023/07/08 09:34:45;;;;;;;3.70;3.40;;;;;;;;;;5076938;28;20212;-66
2023/07/08 09:37:23;;;;;;;4.28;3.88;;;;;;;;;;5076790;28;20615;-65
2023/07/08 09:39:50;;;;;;;3.63;3.33;;;;;;;;;;5076742;28;20204;-65
2023/07/08 09:42:18;;;;;;;3.88;3.58;;;;;;;;;;5076349;28;20204;-65
2023/07/08 09:44:46;;;;;;;3.97;3.67;;;;;;;;;;5075100;28;20207;-65
2023/07/08 09:47:23;;;;;;;3.90;3.47;;;;;;;;;;5076871;28;20639;-65
2023/07/08 09:49:51;;;;;;;3.60;3.30;;;;;;;;;;5076468;28;20204;-65
2023/07/08 09:52:18;;;;;;;3.65;3.35;;;;;;;;;;5076433;28;20229;-65
2023/07/08 09:54:47;;;;;;;3.70;3.45;;;;;;;;;;5076658;28;20526;-65
2023/07/08 09:57:20;;;;;;;4.05;3.70;;;;;;;;;;5075844;28;20261;-65
2023/07/08 09:59:48;;;;;;;3.90;3.60;;;;;;;;;;5076908;28;20461;-65
2023/07/08 10:02:29;;;;;;;3.70;3.40;;;;;;;;;;5076097;28;20204;-65
2023/07/08 10:04:58;;;;;;;3.55;3.33;;;;;;;;;;5075731;28;20204;-65
2023/07/08 10:07:25;;;;;;;3.50;3.20;;;;;;;;;;5076488;28;20219;-66
2023/07/08 10:09:55;;;;;;;3.80;3.50;;;;;;;;;;5074940;28;20208;-65
2023/07/08 10:12:24;;;;;;;3.80;3.50;;;;;;;;;;5076148;28;20235;-65
2023/07/08 10:14:52;;;;;;;3.63;3.33;;;;;;;;;;5076631;28;20211;-65
2023/07/08 10:17:21;;;;;;;3.72;3.42;;;;;;;;;;5075851;28;20204;-65
2023/07/08 10:19:48;;;;;;;3.80;3.50;;;;;;;;;;5076053;28;20219;-65
2023/07/08 10:22:31;;;;;;;4.05;3.75;;;;;;;;;;5075688;28;20601;-65
2023/07/08 10:25:08;;;;;;;4.20;3.80;;;;;;;;;;5075169;28;20498;-65
2023/07/08 10:27:38;;;;;;;3.92;3.63;;;;;;;;;;5075666;28;20595;-65
2023/07/08 10:30:12;;;;;;;3.70;3.42;;;;;;;;;;5076210;28;20196;-65
2023/07/08 10:32:45;;;;;;;3.58;3.30;;;;;;;;;;5075372;28;20450;-65
2023/07/08 10:35:18;;;;;;;3.78;3.47;;;;;;;;;;5075965;28;20211;-65
2023/07/08 10:37:51;;;;;;;3.70;3.40;;;;;;;;;;5075256;28;20223;-65
2023/07/08 10:40:25;;;;;;;3.78;3.47;;;;;;;;;;5075428;28;20337;-65
2023/07/08 10:42:57;;;;;;;4.00;3.70;;;;;;;;;;5074615;28;20228;-65
2023/07/08 10:45:31;;;;;;;3.50;3.20;;;;;;;;;;5075376;28;20212;-65
2023/07/08 10:48:03;;;;;;;3.70;3.40;;;;;;;;;;5074580;28;20295;-65
2023/07/08 10:50:44;;;;;;;3.70;3.40;;;;;;;;;;5074848;28;20211;-66
2023/07/08 10:53:22;;;;;;;3.88;3.55;;;;;;;;;;5074302;28;20301;-65
2023/07/08 10:55:53;;;;;;;3.50;3.30;;;;;;;;;;5075023;28;20214;-65
2023/07/08 10:58:26;;;;;;;3.92;3.63;;;;;;;;;;5075059;28;20200;-65
2023/07/08 11:00:57;;;;;;;3.80;3.50;;;;;;;;;;5074358;28;20673;-65
2023/07/08 11:03:39;;;;;;;3.70;3.40;;;;;;;;;;5074364;28;20220;-65
2023/07/08 11:06:10;;;;;;;3.92;3.63;;;;;;;;;;5074834;28;20200;-65
2023/07/08 11:08:41;;;;;;;3.80;3.50;;;;;;;;;;5074812;28;20230;-65
2023/07/08 11:11:11;;;;;;;3.58;3.28;;;;;;;;;;5074167;28;20486;-65
2023/07/08 11:13:44;;;;;;;3.55;3.28;;;;;;;;;;5075485;28;20206;-65
2023/07/08 11:16:14;;;;;;;3.85;3.55;;;;;;;;;;5074956;28;20264;-65
2023/07/08 11:18:44;;;;;;;3.58;3.28;;;;;;;;;;5074905;28;20219;-65
2023/07/08 11:21:13;;;;;;;3.60;3.30;;;;;;;;;;5074360;28;20196;-65
2023/07/08 11:23:43;;;;;;;3.60;3.30;;;;;;;;;;5074423;28;20220;-65
2023/07/08 11:26:16;;;;;;;3.70;3.40;;;;;;;;;;5073730;28;20613;-65
2023/07/08 11:28:44;;;;;;;3.67;3.38;;;;;;;;;;5074273;28;20601;-65
2023/07/08 11:31:12;;;;;;;3.85;3.55;;;;;;;;;;5074644;28;20204;-65
2023/07/08 11:33:40;;;;;;;3.30;3.10;;;;;;;;;;5074716;28;20583;-65
2023/07/08 11:36:08;;;;;;;3.45;3.17;;;;;;;;;;5074320;28;20197;-66
2023/07/08 11:38:35;;;;;;;3.90;3.60;;;;;;;;;;5074640;28;20223;-65
2023/07/08 11:41:05;;;;;;;3.25;3.05;;;;;;;;;;5074373;28;20205;-66
2023/07/08 11:43:39;;;;;;;3.70;3.40;;;;;;;;;;5076916;28;20236;-65
2023/07/08 11:46:07;;;;;;;3.58;3.28;;;;;;;;;;5078202;28;20422;-66
2023/07/08 11:48:41;;;;;;;3.45;3.25;;;;;;;;;;5078082;28;20206;-65
2023/07/08 11:51:08;;;;;;;3.50;3.20;;;;;;;;;;5077522;28;20200;-65
2023/07/08 11:53:37;;;;;;;3.55;3.25;;;;;;;;;;5078181;28;20228;-65
2023/07/08 11:56:07;;;;;;;3.38;3.10;;;;;;;;;;5078147;28;20204;-65
2023/07/08 11:58:51;;;;;;;3.40;3.10;;;;;;;;;;5077858;28;20216;-65
2023/07/08 12:01:25;;;;;;;3.33;3.13;;;;;;;;;;5078508;28;20458;-65
2023/07/08 12:03:53;;;;;;;3.40;3.20;;;;;;;;;;5077950;28;20220;-65
2023/07/08 12:06:39;;;;;;;3.22;3.03;;;;;;;;;;5077918;28;20216;-65
2023/07/08 12:09:15;;;;;;;3.22;3.03;;;;;;;;;;5078485;28;20200;-65
2023/07/08 12:11:45;;;;;;;3.70;3.40;;;;;;;;;;5078268;28;20204;-65
2023/07/08 12:14:14;;;;;;;3.78;3.47;;;;;;;;;;5078572;28;20200;-66
2023/07/08 12:16:43;;;;;;;3.50;3.20;;;;;;;;;;5078052;28;20227;-65
2023/07/08 12:19:13;;;;;;;3.20;2.97;;;;;;;;;;5078022;28;20572;-68
2023/07/08 12:21:42;;;;;;;3.72;3.13;;;;;;;;;;5077324;28;20211;-64
2023/07/08 12:24:12;;;;;;;3.97;3.55;;;;;;;;;;5077430;28;20224;-64
2023/07/08 12:26:40;;;;;;;4.28;3.28;;;;;;;;;;5076922;28;20204;-66
2023/07/08 12:29:07;;;;;;;3.88;3.15;;;;;;;;;;5077363;28;20567;-65
2023/07/08 12:31:35;;;;;;;3.00;2.70;;;;;;;;;;5077633;28;20283;-65
2023/07/08 12:34:04;;;;;;;3.45;3.15;;;;;;;;;;5076703;28;20200;-65
2023/07/08 12:36:32;;;;;;;3.50;3.20;;;;;;;;;;5078208;28;20208;-66
2023/07/08 12:39:01;;;;;;;3.33;3.03;;;;;;;;;;5078084;28;20582;-65
2023/07/08 12:41:30;;;;;;;3.30;3.00;;;;;;;;;;5077077;28;21337;-66
2023/07/08 12:43:58;;;;;;;3.42;3.13;;;;;;;;;;5076902;28;20220;-65
2023/07/08 12:46:26;;;;;;;3.38;3.08;;;;;;;;;;5078300;28;20204;-66
2023/07/08 12:48:54;;;;;;;3.42;3.20;;;;;;;;;;5077493;28;20197;-66
2023/07/08 12:51:23;;;;;;;3.92;3.00;;;;;;;;;;5077839;28;20216;-65
2023/07/08 12:53:51;;;;;;;3.78;3.47;;;;;;;;;;5076576;28;20231;-66
2023/07/08 12:56:19;;;;;;;2.97;2.63;;;;;;;;;;5077817;28;20528;-65
2023/07/08 12:58:48;;;;;;;4.10;3.28;;;;;;;;;;5076297;28;20207;-66
2023/07/08 13:01:17;;;;;;;3.45;3.15;;;;;;;;;;5076941;28;20208;-66
2023/07/08 13:03:47;;;;;;;4.97;3.22;;;;;;;;;;5077057;28;20224;-66
2023/07/08 13:06:17;;;;;;;3.60;3.30;;;;;;;;;;5077249;28;20208;-71
2023/07/08 13:08:45;;;;;;;12.18;3.95;;;;;;;;;;5076732;28;20214;-67
2023/07/08 13:11:15;;;;;;;7.45;3.40;;;;;;;;;;5077523;28;20200;-67
2023/07/08 13:13:51;;;;;;;7.75;3.70;;;;;;;;;;5077225;28;20310;-67
2023/07/08 13:16:19;;;;;;;6.20;3.15;;;;;;;;;;5077584;28;20269;-60
2023/07/08 13:18:46;;;;;;;6.43;3.22;;;;;;;;;;5076942;28;20231;-60
2023/07/08 13:21:15;;;;;;;6.75;3.47;;;;;;;;;;5077194;28;20227;-62
2023/07/08 13:23:42;;;;;;;5.93;3.60;;;;;;;;;;5077005;28;20235;-60
2023/07/08 13:26:16;;;;;;;5.68;3.22;;;;;;;;;;5076668;28;20484;-60
2023/07/08 13:28:45;;;;;;;6.00;3.20;;;;;;;;;;5077037;28;20214;-60
2023/07/08 13:31:17;;;;;;;6.20;3.20;;;;;;;;;;5076340;28;20196;-61
2023/07/08 13:33:47;;;;;;;4.90;3.80;;;;;;;;;;5076564;28;20216;-62
2023/07/08 13:36:15;;;;;;;4.45;3.20;;;;;;;;;;5076426;28;20201;-61
2023/07/08 13:38:42;;;;;;;6.57;3.15;;;;;;;;;;5076065;28;20216;-62
2023/07/08 13:41:12;;;;;;;4.95;3.58;;;;;;;;;;5076080;28;20219;-61
2023/07/08 13:43:42;;;;;;;4.18;3.15;;;;;;;;;;5077009;28;20232;-62
2023/07/08 13:46:24;;;;;;;4.13;3.20;;;;;;;;;;5076391;28;20204;-62
2023/07/08 13:48:51;;;;;;;4.82;3.30;;;;;;;;;;5075540;28;20238;-62
2023/07/08 13:51:20;;;;;;;4.88;3.60;;;;;;;;;;5075434;28;20572;-62
2023/07/08 13:53:49;;;;;;;3.47;3.13;;;;;;;;;;5075866;28;20232;-62
2023/07/08 13:56:20;;;;;;;4.10;3.10;;;;;;;;;;5076517;28;20204;-61
2023/07/08 13:58:50;;;;;;;4.80;3.20;;;;;;;;;;5076206;28;20207;-62
2023/07/08 14:01:18;;;;;;;3.95;3.13;;;;;;;;;;5076577;28;20204;-61
2023/07/08 14:03:46;;;;;;;4.28;3.17;;;;;;;;;;5075785;28;20232;-61
2023/07/08 14:06:15;;;;;;;3.75;3.28;;;;;;;;;;5074733;28;20230;-62
2023/07/08 14:08:43;;;;;;;3.50;3.20;;;;;;;;;;5076047;28;20205;-62
2023/07/08 14:11:10;;;;;;;4.60;3.28;;;;;;;;;;5075709;28;20200;-62
2023/07/08 14:13:38;;;;;;;3.28;2.97;;;;;;;;;;5075938;28;20212;-63
2023/07/08 14:16:12;;;;;;;4.47;3.17;;;;;;;;;;5075873;28;20323;-61
2023/07/08 14:18:39;;;;;;;3.63;3.10;;;;;;;;;;5075176;28;20205;-61
2023/07/08 14:21:06;;;;;;;3.55;3.25;;;;;;;;;;5076268;28;20489;-62
2023/07/08 14:23:34;;;;;;;3.40;3.10;;;;;;;;;;5075955;28;20517;-61
2023/07/08 14:26:01;;;;;;;7.10;3.70;;;;;;;;;;5075403;28;20232;-60
2023/07/08 14:28:29;;;;;;;3.92;3.00;;;;;;;;;;5076447;28;20200;-66
2023/07/08 14:30:57;;;;;;;3.88;3.30;;;;;;;;;;5075842;28;20293;-68
2023/07/08 14:33:25;;;;;;;4.70;3.40;;;;;;;;;;5074929;28;20295;-67
2023/07/08 14:35:53;;;;;;;4.80;3.35;;;;;;;;;;5076315;28;20303;-70
2023/07/08 14:38:21;;;;;;;4.90;3.40;;;;;;;;;;5075749;28;20270;-67
2023/07/08 14:40:48;;;;;;;3.30;3.00;;;;;;;;;;5075482;28;20200;-68
2023/07/08 14:43:18;;;;;;;3.25;2.95;;;;;;;;;;5074076;28;20211;-68
2023/07/08 14:45:49;;;;;;;3.80;2.90;;;;;;;;;;5075029;28;20227;-68
2023/07/08 14:48:17;;;;;;;3.38;3.00;;;;;;;;;;5075157;28;20204;-68
2023/07/08 14:50:47;;;;;;;3.67;3.08;;;;;;;;;;5075322;28;20602;-68
2023/07/08 14:53:16;;;;;;;4.05;3.05;;;;;;;;;;5074472;28;20327;-68